Time;durP1;ratioP1;P1;durP2;ratioP2;P2;SDS_P1;SDS_P2;PMS_P1;PMS_P2;Temp;Humidity;BMP_temperature;BMP_pressure;BME280_temperature;BME280_humidity;BME280_pressure;Samples;Min_cycle;Max_cycle;Signal;HPM_P1;HPM_P2
2023/09/11 00:01:31;;;;;;;187.65;179.88;;;;;;;31.38;44.55;101277.94;5020909;28;20029;-72
2023/09/11 00:03:57;;;;;;;186.98;179.07;;;;;;;31.36;44.62;101269.09;5060070;28;20390;-73
2023/09/11 00:06:23;;;;;;;187.45;179.63;;;;;;;31.34;44.35;101271.44;5048256;28;20029;-72
2023/09/11 00:08:49;;;;;;;189.70;181.65;;;;;;;31.32;44.35;101267.41;5040877;28;20443;-72
2023/09/11 00:11:14;;;;;;;188.85;180.82;;;;;;;31.30;44.48;101267.81;5022081;28;20026;-72
2023/09/11 00:13:40;;;;;;;182.27;174.63;;;;;;;31.28;44.45;101264.56;5033912;28;20052;-72
2023/09/11 00:16:05;;;;;;;187.23;179.13;;;;;;;31.25;44.54;101265.31;5026181;28;20034;-73
2023/09/11 00:18:30;;;;;;;182.75;175.15;;;;;;;31.24;44.59;101258.91;5060243;28;20527;-73
2023/09/11 00:20:56;;;;;;;181.30;173.55;;;;;;;31.21;44.50;101258.84;5052507;28;20036;-73
2023/09/11 00:23:21;;;;;;;184.10;176.23;;;;;;;31.19;44.22;101264.00;5043165;28;20033;-73
2023/09/11 00:25:47;;;;;;;183.88;176.23;;;;;;;31.17;44.57;101257.97;5044877;28;20120;-72
2023/09/11 00:28:12;;;;;;;181.68;173.77;;;;;;;31.13;44.59;101260.72;5016517;28;20038;-72
2023/09/11 00:30:38;;;;;;;180.43;172.85;;;;;;;31.12;44.25;101261.06;5047802;28;20037;-73
2023/09/11 00:33:04;;;;;;;182.80;174.95;;;;;;;31.09;44.25;101262.63;5028026;28;20116;-73
2023/09/11 00:35:29;;;;;;;178.32;170.55;;;;;;;31.07;44.62;101255.81;5047150;28;20491;-74
2023/09/11 00:37:55;;;;;;;188.98;180.57;;;;;;;31.04;44.32;101246.19;5040109;28;20048;-73
2023/09/11 00:40:20;;;;;;;179.95;172.23;;;;;;;31.03;44.57;101252.97;5029580;28;20389;-73
2023/09/11 00:42:45;;;;;;;185.18;177.18;;;;;;;30.99;44.53;101244.50;5045219;28;20033;-72
2023/09/11 00:45:12;;;;;;;182.35;174.35;;;;;;;30.98;44.37;101251.28;5027539;28;20040;-73
2023/09/11 00:47:39;;;;;;;177.60;170.07;;;;;;;30.96;44.46;101250.03;5023731;28;20455;-73
2023/09/11 00:50:07;;;;;;;178.60;170.87;;;;;;;30.93;44.77;101246.00;5038830;28;20036;-73
2023/09/11 00:52:33;;;;;;;183.98;176.07;;;;;;;30.91;44.44;101250.34;5036785;28;20120;-74
2023/09/11 00:54:59;;;;;;;181.82;174.02;;;;;;;30.89;44.46;101247.91;5034487;28;20125;-73
2023/09/11 00:57:25;;;;;;;183.88;175.98;;;;;;;30.87;44.30;101241.91;5032431;28;20111;-72
2023/09/11 00:59:51;;;;;;;189.20;181.02;;;;;;;30.83;44.46;101241.81;5045932;28;20037;-73
2023/09/11 01:02:17;;;;;;;180.45;172.57;;;;;;;30.81;44.66;101241.34;5042985;28;20107;-74
2023/09/11 01:04:44;;;;;;;182.65;174.45;;;;;;;30.80;44.33;101244.53;5025936;28;20563;-73
2023/09/11 01:07:12;;;;;;;182.27;174.35;;;;;;;30.78;44.72;101241.28;5040227;28;20107;-73
2023/09/11 01:09:38;;;;;;;178.93;171.38;;;;;;;30.75;44.48;101240.06;5025965;28;20116;-73
2023/09/11 01:12:04;;;;;;;180.25;172.25;;;;;;;30.73;44.31;101238.81;5024579;28;20064;-74
2023/09/11 01:14:30;;;;;;;181.02;173.32;;;;;;;30.71;44.31;101238.38;5035939;28;20065;-74
2023/09/11 01:16:55;;;;;;;183.30;175.30;;;;;;;30.68;44.63;101239.91;5047473;28;20469;-73
2023/09/11 01:19:44;;;;;;;182.75;174.70;;;;;;;30.66;44.58;101235.88;5047194;28;20205;-74
2023/09/11 01:22:49;;;;;;;179.60;171.85;;;;;;;30.60;44.35;101240.94;5040828;28;20037;-72
2023/09/11 01:25:26;;;;;;;178.25;170.68;;;;;;;30.56;44.34;101243.66;5026826;28;20052;-73
2023/09/11 01:28:03;;;;;;;176.07;168.40;;;;;;;30.53;44.61;101238.81;5043149;28;20040;-73
2023/09/11 01:30:29;;;;;;;182.37;174.10;;;;;;;30.52;44.35;101236.41;5041081;28;20026;-73
2023/09/11 01:32:56;;;;;;;174.70;166.98;;;;;;;30.51;44.27;101237.56;5043749;28;20356;-73
2023/09/11 01:35:21;;;;;;;181.35;173.57;;;;;;;30.50;44.44;101230.38;5033380;28;20053;-73
2023/09/11 01:37:46;;;;;;;171.52;164.05;;;;;;;30.47;44.48;101228.34;5026142;28;20366;-71
2023/09/11 01:40:12;;;;;;;177.05;169.15;;;;;;;30.45;44.42;101228.69;5020416;28;20042;-74
2023/09/11 01:42:44;;;;;;;175.25;167.55;;;;;;;30.44;44.57;101231.84;5030310;28;20034;-72
2023/09/11 01:45:14;;;;;;;174.95;167.43;;;;;;;30.42;44.50;101226.66;5051111;28;20034;-74
2023/09/11 01:47:42;;;;;;;172.93;165.43;;;;;;;30.39;44.45;101225.41;5029525;28;20233;-73
2023/09/11 01:50:10;;;;;;;175.60;167.93;;;;;;;30.37;44.51;101224.97;5016678;28;20037;-74
2023/09/11 01:52:36;;;;;;;173.63;165.93;;;;;;;30.34;44.64;101224.88;5040362;28;20531;-73
2023/09/11 01:55:02;;;;;;;175.25;167.68;;;;;;;30.32;44.58;101222.47;5036600;28;20037;-73
2023/09/11 01:57:28;;;;;;;175.95;168.25;;;;;;;30.31;44.55;101225.59;5027917;28;20116;-74
2023/09/11 01:59:53;;;;;;;170.45;162.85;;;;;;;30.28;44.72;101212.41;5038069;28;20088;-73
2023/09/11 02:02:19;;;;;;;174.07;166.38;;;;;;;30.26;44.36;101223.09;5037386;28;20094;-73
2023/09/11 02:04:45;;;;;;;174.40;167.00;;;;;;;30.24;44.65;101223.50;5046372;28;20041;-73
2023/09/11 02:07:10;;;;;;;175.50;167.88;;;;;;;30.22;44.30;101219.44;5043905;28;20767;-72
2023/09/11 02:09:36;;;;;;;182.35;174.65;;;;;;;30.19;44.56;101216.19;5037118;28;20045;-73
2023/09/11 02:12:01;;;;;;;179.82;172.10;;;;;;;30.16;44.55;101214.16;5048298;28;20082;-73
2023/09/11 02:14:28;;;;;;;176.70;168.82;;;;;;;30.14;44.28;101213.69;5024844;28;20034;-72
2023/09/11 02:16:53;;;;;;;175.40;167.63;;;;;;;30.12;44.66;101221.59;5016975;28;20497;-73
2023/09/11 02:19:19;;;;;;;181.00;172.88;;;;;;;30.11;44.54;101216.38;5028800;28;20037;-73
2023/09/11 02:21:44;;;;;;;173.32;165.63;;;;;;;30.08;44.50;101211.56;5049308;28;20029;-73
2023/09/11 02:24:09;;;;;;;175.35;167.68;;;;;;;30.06;44.66;101211.09;5030312;28;20037;-73
2023/09/11 02:26:35;;;;;;;172.80;165.02;;;;;;;30.02;44.70;101213.81;5035874;28;20061;-74
2023/09/11 02:29:00;;;;;;;172.13;164.48;;;;;;;30.01;44.58;101211.41;5019735;28;20052;-73
2023/09/11 02:31:26;;;;;;;178.32;170.55;;;;;;;29.98;44.63;101213.72;5049683;28;20519;-72
2023/09/11 02:33:52;;;;;;;170.32;162.82;;;;;;;29.96;44.62;101206.91;5037625;28;20488;-74
2023/09/11 02:36:17;;;;;;;172.15;164.73;;;;;;;29.94;44.65;101204.50;5040006;28;20563;-73
2023/09/11 02:38:43;;;;;;;169.07;161.57;;;;;;;29.92;44.75;101214.41;5045281;28;20037;-73
2023/09/11 02:41:08;;;;;;;175.63;167.82;;;;;;;29.90;44.62;101206.38;5049787;28;20118;-73
2023/09/11 02:43:34;;;;;;;179.13;171.13;;;;;;;29.89;44.54;101201.22;5027666;28;20034;-73
2023/09/11 02:45:59;;;;;;;173.75;166.25;;;;;;;29.88;44.70;101194.00;5040900;28;20117;-74
2023/09/11 02:48:24;;;;;;;168.73;161.30;;;;;;;29.86;44.46;101196.34;5046061;28;20384;-73
2023/09/11 02:50:50;;;;;;;171.35;163.85;;;;;;;29.83;44.61;101189.53;5043037;28;20041;-74
2023/09/11 02:53:16;;;;;;;166.75;159.20;;;;;;;29.81;44.54;101186.31;5044036;28;20469;-73
2023/09/11 02:55:42;;;;;;;175.75;168.20;;;;;;;29.78;44.56;101184.22;5030039;28;20076;-73
2023/09/11 02:58:08;;;;;;;167.38;159.77;;;;;;;29.78;44.69;101184.22;5032896;28;20033;-73
2023/09/11 03:00:36;;;;;;;174.68;167.15;;;;;;;29.75;44.57;101182.97;5025489;28;20048;-72
2023/09/11 03:03:03;;;;;;;167.98;160.70;;;;;;;29.74;44.65;101184.16;5038979;28;20036;-73
2023/09/11 03:05:32;;;;;;;170.50;162.20;;;;;;;29.71;44.76;101184.06;5041219;28;20118;-72
2023/09/11 03:08:01;;;;;;;166.63;158.93;;;;;;;29.69;44.80;101186.44;5031301;28;20464;-72
2023/09/11 03:10:28;;;;;;;172.05;164.20;;;;;;;29.67;44.61;101184.00;5048702;28;20032;-73
2023/09/11 03:12:54;;;;;;;165.80;158.65;;;;;;;29.65;44.62;101179.94;5050454;28;20052;-73
2023/09/11 03:15:20;;;;;;;167.52;159.93;;;;;;;29.62;44.46;101178.69;5046155;28;20122;-73
2023/09/11 03:17:51;;;;;;;169.68;162.10;;;;;;;29.61;44.36;101176.25;5048695;28;20091;-72
2023/09/11 03:20:17;;;;;;;166.95;159.65;;;;;;;29.58;44.59;101177.78;5031007;28;20040;-73
2023/09/11 03:22:42;;;;;;;167.52;160.00;;;;;;;29.56;44.62;101171.78;5034717;28;20131;-73
2023/09/11 03:25:08;;;;;;;165.25;157.82;;;;;;;29.54;44.64;101169.34;5034620;28;20121;-73
2023/09/11 03:27:33;;;;;;;169.35;161.93;;;;;;;29.52;44.67;101165.31;5028078;28;20115;-73
2023/09/11 03:29:59;;;;;;;168.45;161.15;;;;;;;29.51;44.62;101158.16;5033707;28;20087;-72
2023/09/11 03:32:24;;;;;;;164.20;156.95;;;;;;;29.49;44.46;101157.69;5040600;28;20045;-74
2023/09/11 03:34:55;;;;;;;163.73;156.43;;;;;;;29.47;44.74;101157.25;5032525;28;20436;-73
2023/09/11 03:37:21;;;;;;;164.13;156.90;;;;;;;29.44;44.69;101156.00;5031585;28;20029;-73
2023/09/11 03:39:47;;;;;;;162.45;155.02;;;;;;;29.42;44.55;101157.53;5030573;28;20461;-73
2023/09/11 03:42:12;;;;;;;160.50;153.55;;;;;;;29.40;44.50;101154.28;5032799;28;20041;-71
2023/09/11 03:44:38;;;;;;;165.98;158.70;;;;;;;29.39;44.74;101161.84;5042340;28;20061;-73
2023/09/11 03:47:03;;;;;;;159.88;152.82;;;;;;;29.36;44.68;101145.03;5030720;28;20045;-73
2023/09/11 03:49:29;;;;;;;160.57;153.55;;;;;;;29.34;44.48;101148.19;5028501;28;20117;-73
2023/09/11 03:51:55;;;;;;;163.68;156.48;;;;;;;29.33;44.63;101144.63;5038741;28;20037;-73
2023/09/11 03:54:20;;;;;;;160.73;153.38;;;;;;;29.30;44.42;101138.94;5033152;28;20160;-72
2023/09/11 03:56:46;;;;;;;161.65;154.55;;;;;;;29.29;44.62;101137.34;5025069;28;20046;-73
2023/09/11 03:59:11;;;;;;;157.90;150.82;;;;;;;29.27;44.53;101132.13;5033701;28;20482;-73
2023/09/11 04:01:36;;;;;;;165.48;157.80;;;;;;;29.25;44.60;101126.13;5038947;28;20517;-73
2023/09/11 04:04:02;;;;;;;160.50;153.43;;;;;;;29.23;44.73;101124.88;5031807;28;20037;-74
2023/09/11 04:06:27;;;;;;;166.07;158.85;;;;;;;29.21;44.55;101116.91;5028378;28;20053;-73
2023/09/11 04:08:52;;;;;;;161.70;154.60;;;;;;;29.20;44.79;101118.06;5021443;28;20057;-73
2023/09/11 04:11:22;;;;;;;161.02;153.73;;;;;;;29.18;44.51;101122.34;5038158;28;20037;-73
2023/09/11 04:13:48;;;;;;;160.35;153.20;;;;;;;29.16;44.53;101119.97;5026484;28;20064;-73
2023/09/11 04:16:15;;;;;;;156.80;149.80;;;;;;;29.15;44.68;101123.09;5034794;28;20389;-73
2023/09/11 04:18:42;;;;;;;162.88;155.68;;;;;;;29.12;44.57;101117.06;5032809;28;20468;-73
2023/09/11 04:21:08;;;;;;;161.55;154.38;;;;;;;29.11;44.46;101111.88;5028276;28;20029;-73
2023/09/11 04:23:33;;;;;;;154.80;147.93;;;;;;;29.09;44.43;101126.16;5030675;28;20424;-72
2023/09/11 04:25:59;;;;;;;156.82;149.95;;;;;;;29.07;44.53;101125.69;5034712;28;20059;-73
2023/09/11 04:28:25;;;;;;;157.55;150.60;;;;;;;29.05;44.56;101127.19;5033535;28;20037;-73
2023/09/11 04:30:50;;;;;;;155.63;148.43;;;;;;;29.02;44.64;101123.16;5033287;28;20500;-72
2023/09/11 04:33:17;;;;;;;161.60;154.50;;;;;;;29.01;44.43;101126.31;5029092;28;20033;-72
2023/09/11 04:35:43;;;;;;;158.98;151.98;;;;;;;29.00;44.60;101113.56;5038826;28;20064;-72
2023/09/11 04:38:08;;;;;;;163.00;155.68;;;;;;;28.98;44.37;101127.00;5031921;28;20029;-73
2023/09/11 04:40:34;;;;;;;159.60;152.43;;;;;;;28.97;44.42;101122.63;5026931;28;20072;-73
2023/09/11 04:42:59;;;;;;;156.45;149.18;;;;;;;28.95;44.60;101138.84;5035271;28;20091;-72
2023/09/11 04:45:24;;;;;;;155.13;148.35;;;;;;;28.93;44.75;101130.88;5030798;28;20140;-72
2023/09/11 04:47:50;;;;;;;152.85;145.90;;;;;;;28.91;44.57;101139.56;5032134;28;20037;-73
2023/09/11 04:50:16;;;;;;;152.70;145.93;;;;;;;28.89;44.53;101141.91;5030354;28;20538;-73
2023/09/11 04:52:42;;;;;;;158.70;151.60;;;;;;;28.88;44.48;101136.72;5029595;28;20041;-73
2023/09/11 04:55:08;;;;;;;151.32;144.57;;;;;;;28.86;44.58;101133.47;5041075;28;20463;-74
2023/09/11 04:57:33;;;;;;;153.95;147.20;;;;;;;28.85;44.43;101134.63;5037060;28;20079;-74
2023/09/11 04:59:59;;;;;;;156.40;149.60;;;;;;;28.82;44.55;101130.59;5033751;28;20037;-73
2023/09/11 05:02:25;;;;;;;153.30;146.52;;;;;;;28.82;44.48;101132.56;5035411;28;20549;-73
2023/09/11 05:04:50;;;;;;;153.40;146.35;;;;;;;28.79;44.52;101133.28;5029225;28;20361;-73
2023/09/11 05:07:16;;;;;;;152.27;145.43;;;;;;;28.78;44.56;101128.88;5031867;28;20085;-73
2023/09/11 05:09:41;;;;;;;151.10;144.02;;;;;;;28.76;44.66;101137.59;5030177;28;20045;-72
2023/09/11 05:12:07;;;;;;;152.15;145.30;;;;;;;28.74;44.49;101139.91;5036115;28;20034;-74
2023/09/11 05:14:33;;;;;;;149.48;142.57;;;;;;;28.73;44.50;101137.47;5023959;28;20146;-74
2023/09/11 05:16:58;;;;;;;152.65;145.88;;;;;;;28.70;44.62;101139.00;5030984;28;20119;-73
2023/09/11 05:19:24;;;;;;;149.00;142.07;;;;;;;28.68;44.50;101152.47;5036542;28;20037;-75
2023/09/11 05:21:49;;;;;;;153.55;146.75;;;;;;;28.65;44.57;101140.09;5029432;28;20037;-73
2023/09/11 05:24:15;;;;;;;149.77;142.98;;;;;;;28.64;44.48;101143.22;5028705;28;20041;-73
2023/09/11 05:26:40;;;;;;;153.68;146.75;;;;;;;28.62;44.86;101153.88;5029114;28;20040;-73
2023/09/11 05:29:05;;;;;;;148.82;142.20;;;;;;;28.58;44.46;101148.25;5036324;28;20494;-73
2023/09/11 05:31:31;;;;;;;152.88;146.18;;;;;;;28.57;44.62;101141.03;5030300;28;20037;-77
2023/09/11 05:33:56;;;;;;;157.55;150.57;;;;;;;28.56;44.56;101149.75;5028453;28;20140;-74
2023/09/11 05:36:21;;;;;;;144.38;137.95;;;;;;;28.54;44.62;101152.06;5031053;28;20159;-72
2023/09/11 05:38:47;;;;;;;151.35;144.40;;;;;;;28.53;44.62;101144.91;5033959;28;20473;-72
2023/09/11 05:41:13;;;;;;;155.93;149.02;;;;;;;28.51;44.71;101147.25;5028442;28;20084;-73
2023/09/11 05:43:40;;;;;;;148.35;141.65;;;;;;;28.48;44.65;101152.34;5024937;28;20117;-73
2023/09/11 05:46:06;;;;;;;154.02;147.30;;;;;;;28.47;44.59;101153.47;5030823;28;20121;-73
2023/09/11 05:48:31;;;;;;;142.70;135.80;;;;;;;28.45;44.75;101150.28;5030897;28;20386;-73
2023/09/11 05:50:57;;;;;;;145.18;138.48;;;;;;;28.43;44.66;101149.78;5042472;28;20036;-74
2023/09/11 05:53:22;;;;;;;153.52;146.82;;;;;;;28.42;44.59;101158.47;5028838;28;20080;-74
2023/09/11 05:55:48;;;;;;;143.00;136.13;;;;;;;28.40;44.78;101158.00;5018267;28;20046;-77
2023/09/11 05:58:14;;;;;;;146.48;139.93;;;;;;;28.37;44.66;101162.31;5028642;28;20508;-73
2023/09/11 06:00:39;;;;;;;153.38;146.68;;;;;;;28.35;44.67;101178.53;5038672;28;20037;-75
2023/09/11 06:03:05;;;;;;;151.32;144.52;;;;;;;28.34;44.72;101176.91;5042548;28;20048;-75
2023/09/11 06:05:32;;;;;;;146.27;139.85;;;;;;;28.32;44.56;101173.66;5050508;28;20040;-76
2023/09/11 06:07:57;;;;;;;143.05;136.70;;;;;;;28.29;44.69;101170.78;5033583;28;20061;-73
2023/09/11 06:10:23;;;;;;;144.15;137.65;;;;;;;28.27;44.75;101168.34;5037216;28;20033;-74
2023/09/11 06:12:48;;;;;;;148.65;142.10;;;;;;;28.24;44.84;101169.88;5044675;28;20401;-79
2023/09/11 06:15:14;;;;;;;149.88;142.90;;;;;;;28.23;44.80;101176.59;5054659;28;20037;-73
2023/09/11 06:17:40;;;;;;;149.68;143.10;;;;;;;28.22;44.79;101185.28;5034907;28;20112;-73
2023/09/11 06:20:13;;;;;;;142.60;136.18;;;;;;;28.20;44.73;101176.50;5032395;28;20148;-73
2023/09/11 06:22:39;;;;;;;142.63;135.63;;;;;;;28.17;44.67;101178.03;5033863;28;20037;-74
2023/09/11 06:25:05;;;;;;;134.82;128.88;;;;;;;28.17;44.77;101188.31;5039567;28;20044;-71
2023/09/11 06:27:31;;;;;;;136.65;130.57;;;;;;;28.15;44.87;101177.56;5027025;28;20033;-73
2023/09/11 06:29:56;;;;;;;137.73;131.43;;;;;;;28.13;44.82;101182.66;5032176;28;20531;-75
2023/09/11 06:32:21;;;;;;;145.32;138.82;;;;;;;28.12;44.80;101188.53;5066519;28;20091;-73
2023/09/11 06:34:47;;;;;;;141.95;135.43;;;;;;;28.10;44.81;101188.09;5030206;28;20039;-72
2023/09/11 06:37:12;;;;;;;142.07;135.45;;;;;;;28.08;44.97;101191.22;5022800;28;20036;-74
2023/09/11 06:39:37;;;;;;;140.63;134.18;;;;;;;28.07;44.80;101183.25;5030067;28;20046;-73
2023/09/11 06:42:03;;;;;;;140.07;133.80;;;;;;;28.05;44.92;101181.63;5031488;28;20033;-73
2023/09/11 06:44:30;;;;;;;139.05;132.70;;;;;;;28.03;44.95;101180.38;5028993;28;20058;-73
2023/09/11 06:46:56;;;;;;;141.30;135.05;;;;;;;28.02;45.02;101181.50;5027215;28;20045;-74
2023/09/11 06:49:21;;;;;;;140.02;133.52;;;;;;;28.01;45.03;101179.91;5031319;28;20371;-74
2023/09/11 06:51:47;;;;;;;142.95;136.65;;;;;;;28.00;44.94;101193.00;5031787;28;20053;-74
2023/09/11 06:54:12;;;;;;;139.30;133.10;;;;;;;28.00;44.82;101192.19;5026648;28;20538;-73
2023/09/11 06:56:40;;;;;;;136.43;129.90;;;;;;;27.98;45.01;101186.97;5033237;28;20885;-73
2023/09/11 06:59:06;;;;;;;139.38;133.10;;;;;;;27.98;44.80;101177.84;5029894;28;20044;-73
2023/09/11 07:01:36;;;;;;;138.05;131.55;;;;;;;27.97;44.99;101184.53;5031898;28;20474;-72
2023/09/11 07:04:02;;;;;;;136.45;130.07;;;;;;;27.96;44.99;101182.94;5030147;28;20073;-74
2023/09/11 07:06:27;;;;;;;138.60;132.07;;;;;;;27.94;44.91;101179.69;5035721;28;20474;-73
2023/09/11 07:08:52;;;;;;;136.82;130.65;;;;;;;27.93;45.03;101178.88;5027883;28;20053;-72
2023/09/11 07:11:18;;;;;;;133.32;127.15;;;;;;;27.93;44.94;101176.09;5034615;28;20386;-75
2023/09/11 07:13:43;;;;;;;136.98;130.80;;;;;;;27.94;44.92;101171.34;5034975;28;20034;-73
2023/09/11 07:16:09;;;;;;;136.88;130.68;;;;;;;27.93;44.93;101169.75;5033809;28;20129;-73
2023/09/11 07:18:34;;;;;;;141.88;135.45;;;;;;;27.92;44.93;101173.66;5028407;28;20128;-72
2023/09/11 07:20:59;;;;;;;139.88;133.35;;;;;;;27.92;44.84;101168.13;5031297;28;20112;-74
2023/09/11 07:23:27;;;;;;;134.50;128.32;;;;;;;27.93;44.93;101178.09;5034069;28;20029;-74
2023/09/11 07:25:55;;;;;;;140.70;134.20;;;;;;;27.92;45.01;101180.06;5031611;28;20030;-73
2023/09/11 07:28:24;;;;;;;143.03;136.43;;;;;;;27.92;45.05;101182.00;5031909;28;20029;-77
2023/09/11 07:30:49;;;;;;;135.88;129.52;;;;;;;27.92;44.86;101188.38;5027412;28;20090;-73
2023/09/11 07:33:15;;;;;;;140.05;133.68;;;;;;;27.93;44.95;101187.22;5028536;28;20592;-73
2023/09/11 07:35:40;;;;;;;135.93;128.88;;;;;;;27.94;44.95;101190.78;5033041;28;20045;-76
2023/09/11 07:38:06;;;;;;;139.52;133.13;;;;;;;27.94;44.94;101188.81;5030172;28;20461;-72
2023/09/11 07:40:32;;;;;;;142.07;135.60;;;;;;;27.95;45.08;101189.66;5027277;28;20029;-73
2023/09/11 07:42:57;;;;;;;143.38;136.38;;;;;;;27.96;44.82;101202.38;5028449;28;20041;-73
2023/09/11 07:45:23;;;;;;;136.80;130.45;;;;;;;27.96;44.79;101196.81;5029633;28;20496;-73
2023/09/11 07:47:48;;;;;;;146.98;139.98;;;;;;;27.96;44.79;101194.84;5032241;28;20045;-72
2023/09/11 07:50:14;;;;;;;136.13;129.90;;;;;;;27.97;44.85;101192.88;5032076;28;20485;-73
2023/09/11 07:52:39;;;;;;;141.57;135.18;;;;;;;27.96;44.73;101197.63;5029821;28;20596;-73
2023/09/11 07:55:06;;;;;;;142.02;135.45;;;;;;;27.98;45.04;101197.28;5028029;28;20039;-73
2023/09/11 07:57:32;;;;;;;143.48;137.05;;;;;;;27.98;45.03;101203.63;5029221;28;20041;-73
2023/09/11 08:00:03;;;;;;;143.32;136.73;;;;;;;27.99;44.93;101207.22;5033747;28;20041;-73
2023/09/11 08:02:29;;;;;;;134.23;127.95;;;;;;;28.00;45.21;101211.63;5029677;28;21976;-72
2023/09/11 08:04:55;;;;;;;138.93;132.15;;;;;;;28.00;44.96;101214.41;5024980;28;20120;-72
2023/09/11 08:07:20;;;;;;;143.02;136.52;;;;;;;28.02;44.94;101212.88;5027788;28;20073;-72
2023/09/11 08:09:46;;;;;;;136.80;130.30;;;;;;;28.03;45.02;101208.94;5026026;28;20602;-71
2023/09/11 08:12:12;;;;;;;135.80;129.52;;;;;;;28.05;44.94;101211.38;5024285;28;20072;-72
2023/09/11 08:14:37;;;;;;;136.25;129.93;;;;;;;28.06;45.09;101210.22;5027382;28;20095;-74
2023/09/11 08:17:03;;;;;;;139.25;132.60;;;;;;;28.08;45.29;101213.44;5026511;28;20474;-72
2023/09/11 08:19:28;;;;;;;145.73;138.40;;;;;;;28.10;45.23;101222.25;5028307;28;20500;-72
2023/09/11 08:21:54;;;;;;;142.18;135.65;;;;;;;28.14;45.09;101222.34;5033308;28;20037;-72
2023/09/11 08:24:20;;;;;;;151.13;143.77;;;;;;;28.15;45.32;101212.84;5023397;28;20041;-73
2023/09/11 08:26:45;;;;;;;138.05;131.55;;;;;;;28.16;45.35;101218.06;5025748;28;20038;-72
2023/09/11 08:29:12;;;;;;;139.68;133.27;;;;;;;28.19;45.40;101220.13;5030376;28;20104;-73
2023/09/11 08:31:37;;;;;;;150.07;142.55;;;;;;;28.21;45.50;101220.59;5028775;28;20041;-72
2023/09/11 08:34:03;;;;;;;145.35;138.40;;;;;;;28.24;45.39;101217.09;5025801;28;20041;-72
2023/09/11 08:36:28;;;;;;;141.27;135.00;;;;;;;28.27;45.46;101221.13;5032113;28;20045;-73
2023/09/11 08:38:54;;;;;;;141.80;135.50;;;;;;;28.30;45.52;101222.41;5032582;28;20045;-74
2023/09/11 08:41:22;;;;;;;142.15;135.35;;;;;;;28.32;45.32;101207.00;5025567;28;20052;-74
2023/09/11 08:43:48;;;;;;;147.10;139.57;;;;;;;28.35;45.45;101205.50;5026248;28;20871;-73
2023/09/11 08:46:15;;;;;;;145.27;138.07;;;;;;;28.37;45.83;101198.41;5027357;28;20033;-73
2023/09/11 08:48:48;;;;;;;140.43;134.03;;;;;;;28.41;45.59;101202.13;5030487;28;20043;-72
2023/09/11 08:51:24;;;;;;;143.60;136.98;;;;;;;28.44;45.48;101198.66;5028522;28;20370;-72
2023/09/11 08:53:52;;;;;;;139.80;133.10;;;;;;;28.51;45.97;101200.03;5033157;28;20424;-73
2023/09/11 08:56:18;;;;;;;143.32;136.82;;;;;;;28.55;45.52;101207.31;5026998;28;20106;-72
2023/09/11 08:58:43;;;;;;;144.38;137.77;;;;;;;28.59;45.43;101213.75;5028047;28;20042;-71
2023/09/11 09:01:10;;;;;;;150.52;143.52;;;;;;;28.66;45.37;101218.72;5024787;28;20040;-72
2023/09/11 09:03:38;;;;;;;143.80;137.20;;;;;;;28.67;45.62;101218.34;5031400;28;20049;-72
2023/09/11 09:06:05;;;;;;;142.27;135.70;;;;;;;28.73;45.56;101223.66;5030424;28;20095;-72
2023/09/11 09:08:30;;;;;;;142.90;136.25;;;;;;;28.76;45.48;101229.34;5022938;28;20058;-73
2023/09/11 09:10:57;;;;;;;144.48;137.77;;;;;;;28.79;45.63;101230.59;5028097;28;20045;-72
2023/09/11 09:13:23;;;;;;;150.20;143.30;;;;;;;28.82;45.70;101230.69;5029733;28;20553;-72
2023/09/11 09:15:48;;;;;;;142.10;135.43;;;;;;;28.85;45.94;101230.00;5027237;28;20167;-71
2023/09/11 09:18:13;;;;;;;147.88;140.93;;;;;;;28.88;45.79;101223.72;5026767;28;20029;-72
2023/09/11 09:20:39;;;;;;;147.60;140.93;;;;;;;28.90;45.96;101221.38;5022324;28;20041;-74
2023/09/11 09:23:06;;;;;;;151.98;145.18;;;;;;;28.94;45.87;101224.25;5027678;28;20033;-73
2023/09/11 09:25:31;;;;;;;150.73;143.73;;;;;;;28.97;45.97;101231.88;5027385;28;20104;-73
2023/09/11 09:27:58;;;;;;;148.93;142.15;;;;;;;29.01;45.84;101232.00;5024862;28;20521;-72
2023/09/11 09:30:28;;;;;;;150.05;143.25;;;;;;;29.04;45.93;101222.94;5025960;28;20489;-73
2023/09/11 09:32:54;;;;;;;152.40;145.15;;;;;;;29.07;45.99;101225.00;5026374;28;20049;-73
2023/09/11 09:35:32;;;;;;;151.98;144.70;;;;;;;29.08;45.91;101223.84;5031496;28;20029;-72
2023/09/11 09:37:59;;;;;;;153.20;146.52;;;;;;;29.11;45.90;101223.16;5023540;28;20437;-73
2023/09/11 09:40:42;;;;;;;150.05;143.07;;;;;;;29.13;46.31;101223.56;5027083;28;20106;-74
2023/09/11 09:43:15;;;;;;;153.20;145.73;;;;;;;29.18;46.04;101222.50;5027164;28;20029;-72
2023/09/11 09:45:42;;;;;;;150.32;143.38;;;;;;;29.21;46.09;101219.03;5032625;28;20045;-73
2023/09/11 09:48:18;;;;;;;150.60;143.95;;;;;;;29.23;46.09;101222.25;5029679;28;20045;-73
2023/09/11 09:50:47;;;;;;;154.40;147.40;;;;;;;29.26;46.11;101219.56;5028534;28;20092;-73
2023/09/11 09:53:25;;;;;;;;;;;;;;;29.25;46.25;101219.91;5031147;28;20045;-72
2023/09/11 09:55:51;;;;;;;140.68;134.45;;;;;;;29.30;46.17;101216.84;5034614;28;20391;-73
2023/09/11 09:58:24;;;;;;;148.45;141.85;;;;;;;29.32;46.15;101218.13;5028985;28;20033;-72
2023/09/11 10:00:49;;;;;;;147.48;140.65;;;;;;;29.36;46.23;101223.78;5027594;28;20042;-73
2023/09/11 10:03:15;;;;;;;152.77;145.77;;;;;;;29.40;46.07;101223.88;5021882;28;20358;-72
2023/09/11 10:05:41;;;;;;;150.90;142.90;;;;;;;29.43;45.95;101225.91;5030728;28;20056;-73
2023/09/11 10:08:07;;;;;;;161.27;152.98;;;;;;;29.46;46.18;101217.69;5026672;28;20075;-72
2023/09/11 10:10:33;;;;;;;161.13;154.20;;;;;;;29.50;46.04;101226.09;5030730;28;20040;-73
2023/09/11 10:13:07;;;;;;;152.75;146.07;;;;;;;29.51;46.23;101219.38;5033142;28;20056;-72
2023/09/11 10:15:34;;;;;;;159.60;152.15;;;;;;;29.56;46.01;101213.53;5034680;28;20064;-71
2023/09/11 10:18:02;;;;;;;152.43;145.13;;;;;;;29.58;46.08;101213.97;5033881;28;20120;-72
2023/09/11 10:20:28;;;;;;;151.73;144.85;;;;;;;29.62;46.29;101216.84;5031929;28;20057;-73
2023/09/11 10:22:58;;;;;;;155.15;148.32;;;;;;;29.64;46.13;101218.09;5032708;28;20116;-74
2023/09/11 10:25:27;;;;;;;161.63;154.30;;;;;;;29.67;46.26;101209.06;5026663;28;20030;-74
2023/09/11 10:28:03;;;;;;;;;;;;;;;29.66;46.17;101212.19;5034559;28;20131;-72
2023/09/11 10:30:47;;;;;;;150.52;143.57;;;;;;;29.68;46.25;101207.88;5035071;28;20297;-72
2023/09/11 10:33:20;;;;;;;155.05;148.35;;;;;;;29.73;46.29;101206.78;5033689;28;20040;-74
2023/09/11 10:35:47;;;;;;;153.52;146.85;;;;;;;29.76;46.36;101204.09;5031240;28;20441;-72
2023/09/11 10:38:15;;;;;;;154.48;147.75;;;;;;;29.80;46.45;101201.38;5030546;28;20060;-73
2023/09/11 10:40:42;;;;;;;;;;;;;;;29.77;46.39;101194.56;5027539;28;20478;-72
2023/09/11 10:43:08;;;;;;;159.82;152.98;;;;;;;29.84;46.28;101202.28;5034114;28;19927;-75
2023/09/11 10:45:34;;;;;;;153.82;146.82;;;;;;;29.87;46.45;101192.41;5029862;28;20353;-72
2023/09/11 10:47:59;;;;;;;153.95;147.18;;;;;;;29.90;46.15;101200.81;5029728;28;20041;-72
2023/09/11 10:50:35;;;;;;;157.20;150.30;;;;;;;29.95;46.33;101202.53;5033992;28;20055;-72
2023/09/11 10:53:04;;;;;;;155.38;148.68;;;;;;;29.97;46.13;101189.03;5030121;28;20091;-71